East Grand Rapids, Michigan
Current Conditions -  °F | °C
As of 8:15 AM on Thursday 23 Oct 2014 (Local Time) from KGRR Reporting Station
Haze Haze  
Wind Chill: 30°   Ceiling: 200
Heat Index: 30°   Visibility: 0.75mi
Dew Point: 27°   Wind: 0mph
Humidity: 88%   Direction: NA
Pressure: 30.25"   Gusts: NA
Location:  42.9365°N, 85.5426°W
Report Text: KGRR 231215Z 00000KT 3/4SM R26L/1400V1800FT BR BKN002 M01/M03 A3025 RMK AO2 T10111028
Loading
Personal Weather Stations






























Interactive Weather Map
Tropical Storm Tracking
New forecast layout! Learn more

10-Day Weather Forecast

Advertisements
Track Severe Weather on mobile